createdAt,value
2018-09-20T00:00:53.190Z,7.53
2018-09-20T00:03:21.333Z,7.20
2018-09-20T00:05:49.477Z,7.13
2018-09-20T00:08:17.633Z,6.90
2018-09-20T00:10:45.783Z,7.13
2018-09-20T00:13:13.905Z,7.90
2018-09-20T00:15:42.042Z,6.90
2018-09-20T00:18:10.193Z,6.97
2018-09-20T00:20:38.333Z,6.90
2018-09-20T00:23:06.488Z,7.70
2018-09-20T00:25:34.629Z,7.10
2018-09-20T00:28:02.782Z,8.17
2018-09-20T00:30:30.928Z,6.67
2018-09-20T00:32:59.073Z,6.67
2018-09-20T00:35:27.228Z,6.90
2018-09-20T00:37:55.380Z,6.50
2018-09-20T00:40:23.518Z,6.30
2018-09-20T00:42:51.668Z,5.87
2018-09-20T00:45:19.810Z,5.90
2018-09-20T00:47:47.983Z,6.20
2018-09-20T00:50:16.146Z,7.20
2018-09-20T00:52:44.283Z,7.23
2018-09-20T00:55:12.433Z,7.40
2018-09-20T00:57:40.573Z,7.10
2018-09-20T01:00:08.726Z,6.90
2018-09-20T01:02:36.865Z,7.70
2018-09-20T01:05:05.157Z,6.77
2018-09-20T01:07:33.313Z,7.60
2018-09-20T01:10:01.459Z,7.00
2018-09-20T01:12:29.626Z,8.23
2018-09-20T01:14:57.804Z,7.57
2018-09-20T01:17:25.947Z,7.67
2018-09-20T01:19:54.097Z,7.47
2018-09-20T01:22:22.256Z,8.17
2018-09-20T01:24:50.407Z,7.53
2018-09-20T01:27:18.556Z,8.17
2018-09-20T01:29:46.712Z,6.73
2018-09-20T01:32:14.845Z,8.00
2018-09-20T01:34:43.012Z,8.17
2018-09-20T01:37:11.158Z,7.30
2018-09-20T01:39:39.297Z,6.80
2018-09-20T01:42:07.553Z,7.60
2018-09-20T01:44:35.693Z,7.17
2018-09-20T01:47:04.021Z,7.80
2018-09-20T01:49:32.164Z,7.90
2018-09-20T01:52:00.501Z,7.10
2018-09-20T01:54:28.636Z,6.87
2018-09-20T01:56:56.770Z,8.40
2018-09-20T01:59:24.928Z,7.47
2018-09-20T02:01:53.069Z,7.07
2018-09-20T02:04:21.193Z,7.60
2018-09-20T02:06:49.313Z,7.87
2018-09-20T02:09:17.441Z,8.70
2018-09-20T02:11:45.585Z,8.57
2018-09-20T02:14:13.721Z,7.37
2018-09-20T02:16:41.854Z,7.47
2018-09-20T02:19:10.007Z,7.90
2018-09-20T02:21:38.130Z,8.33
2018-09-20T02:24:06.360Z,6.90
2018-09-20T02:26:34.529Z,7.97
2018-09-20T02:29:02.660Z,7.97
2018-09-20T02:31:30.778Z,8.10
2018-09-20T02:33:58.898Z,8.23
2018-09-20T02:36:27.128Z,7.30
2018-09-20T02:38:55.450Z,7.97
2018-09-20T02:41:23.585Z,8.57
2018-09-20T02:43:51.728Z,8.03
2018-09-20T02:46:19.890Z,8.00
2018-09-20T02:48:48.040Z,8.60
2018-09-20T02:51:16.173Z,8.00
2018-09-20T02:53:44.330Z,7.33
2018-09-20T02:56:12.468Z,8.13
2018-09-20T02:58:40.628Z,8.30
2018-09-20T03:01:08.810Z,8.20
2018-09-20T03:03:36.957Z,8.73
2018-09-20T03:06:05.110Z,8.77
2018-09-20T03:08:33.260Z,8.33
2018-09-20T03:11:01.400Z,8.57
2018-09-20T03:13:29.532Z,8.03
2018-09-20T03:15:57.679Z,8.03
2018-09-20T03:18:25.813Z,8.00
2018-09-20T03:20:53.981Z,8.50
2018-09-20T03:23:22.157Z,8.03
2018-09-20T03:25:50.290Z,8.33
2018-09-20T03:28:18.438Z,8.97
2018-09-20T03:30:46.706Z,8.47
2018-09-20T03:33:14.752Z,8.93
2018-09-20T03:35:42.942Z,8.13
2018-09-20T03:38:11.078Z,8.27
2018-09-20T03:40:39.226Z,8.30
2018-09-20T03:43:07.378Z,8.37
2018-09-20T03:45:35.537Z,8.60
2018-09-20T03:48:03.724Z,8.77
2018-09-20T03:50:31.889Z,8.80
2018-09-20T03:53:00.033Z,7.43
2018-09-20T03:55:28.182Z,8.03
2018-09-20T03:57:56.313Z,8.20
2018-09-20T04:00:24.522Z,9.00
2018-09-20T04:02:52.671Z,8.30
2018-09-20T04:05:20.820Z,8.67
2018-09-20T04:07:49.013Z,8.17
2018-09-20T04:10:17.170Z,8.60
2018-09-20T04:12:45.470Z,8.50
2018-09-20T04:15:13.642Z,9.33
2018-09-20T04:17:42.615Z,7.73
2018-09-20T04:20:10.762Z,8.93
2018-09-20T04:22:38.901Z,9.30
2018-09-20T04:25:07.037Z,8.40
2018-09-20T04:27:35.182Z,8.80
2018-09-20T04:30:03.375Z,8.40
2018-09-20T04:32:31.536Z,8.90
2018-09-20T04:34:59.810Z,8.30
2018-09-20T04:37:27.965Z,9.23
2018-09-20T04:39:56.101Z,8.30
2018-09-20T04:42:24.225Z,9.90
2018-09-20T04:44:52.384Z,8.80
2018-09-20T04:47:20.561Z,9.00
2018-09-20T04:49:48.701Z,8.17
2018-09-20T04:52:16.853Z,9.50
2018-09-20T04:54:45.002Z,8.57
2018-09-20T04:57:13.151Z,8.60
2018-09-20T04:59:41.269Z,8.60
2018-09-20T05:02:09.427Z,8.90
2018-09-20T05:04:37.591Z,8.40
2018-09-20T05:07:09.548Z,9.00
2018-09-20T05:09:37.764Z,9.40
2018-09-20T05:12:05.874Z,9.70
2018-09-20T05:14:34.056Z,8.70
2018-09-20T05:17:02.184Z,8.53
2018-09-20T05:19:30.330Z,8.80
2018-09-20T05:21:58.461Z,8.53
2018-09-20T05:24:26.594Z,8.43
2018-09-20T05:26:54.772Z,8.60
2018-09-20T05:29:22.908Z,9.33
2018-09-20T05:31:51.058Z,8.80
2018-09-20T05:34:19.185Z,9.30
2018-09-20T05:36:47.334Z,9.73
2018-09-20T05:39:15.457Z,8.90
2018-09-20T05:41:43.596Z,8.63
2018-09-20T05:44:11.829Z,8.90
2018-09-20T05:46:40.865Z,9.30
2018-09-20T05:49:09.032Z,8.73
2018-09-20T05:51:37.182Z,9.60
2018-09-20T05:54:05.331Z,10.03
2018-09-20T05:56:33.459Z,7.87
2018-09-20T05:59:01.607Z,8.37
2018-09-20T06:01:29.808Z,9.07
2018-09-20T06:03:57.949Z,8.60
2018-09-20T06:06:26.092Z,9.13
2018-09-20T06:08:54.280Z,9.50
2018-09-20T06:11:22.426Z,9.40
2018-09-20T06:13:50.746Z,9.47
2018-09-20T06:16:18.957Z,9.27
2018-09-20T06:18:47.150Z,8.93
2018-09-20T06:21:15.350Z,9.13
2018-09-20T06:23:43.481Z,9.20
2018-09-20T06:26:11.649Z,9.20
2018-09-20T06:28:39.804Z,9.37
2018-09-20T06:31:07.923Z,9.73
2018-09-20T06:33:45.283Z,9.60
2018-09-20T06:36:13.522Z,9.53
2018-09-20T06:38:41.718Z,8.83
2018-09-20T06:41:10.057Z,9.37
2018-09-20T06:43:38.166Z,8.67
2018-09-20T06:46:06.425Z,10.10
2018-09-20T06:48:34.606Z,8.10
2018-09-20T06:51:02.754Z,9.27
2018-09-20T06:53:30.910Z,9.37
2018-09-20T06:55:59.046Z,9.33
2018-09-20T06:58:27.206Z,9.73
2018-09-20T07:00:55.337Z,8.83
2018-09-20T07:03:23.516Z,9.57
2018-09-20T07:05:51.629Z,8.97
2018-09-20T07:08:19.769Z,9.20
2018-09-20T07:10:47.973Z,9.30
2018-09-20T07:13:16.101Z,9.00
2018-09-20T07:15:44.241Z,9.60
2018-09-20T07:18:12.378Z,8.50
2018-09-20T07:20:40.529Z,8.87
2018-09-20T07:23:08.672Z,8.03
2018-09-20T07:25:36.848Z,8.93
2018-09-20T07:28:04.996Z,8.70
2018-09-20T07:30:33.176Z,8.40
2018-09-20T07:33:01.325Z,7.80
2018-09-20T07:35:29.485Z,8.00
2018-09-20T07:37:57.617Z,8.63
2018-09-20T07:40:25.761Z,7.97
2018-09-20T07:42:53.908Z,8.87
2018-09-20T07:45:22.037Z,8.80
2018-09-20T07:47:50.157Z,8.67
2018-09-20T07:50:18.329Z,9.10
2018-09-20T07:52:46.499Z,8.60
2018-09-20T07:55:14.893Z,8.33
2018-09-20T07:57:43.022Z,8.07
2018-09-20T08:00:11.135Z,8.40
2018-09-20T08:02:39.921Z,7.77
2018-09-20T08:05:08.241Z,8.70
2018-09-20T08:07:36.372Z,7.90
2018-09-20T08:10:04.497Z,7.67
2018-09-20T08:12:32.633Z,7.90
2018-09-20T08:15:00.765Z,7.03
2018-09-20T08:17:28.901Z,8.33
2018-09-20T08:19:58.205Z,8.07
2018-09-20T08:22:26.329Z,7.93
2018-09-20T08:24:54.482Z,8.07
2018-09-20T08:27:22.633Z,8.33
2018-09-20T08:29:50.769Z,8.10
2018-09-20T08:32:18.981Z,8.40
2018-09-20T08:34:47.227Z,8.70
2018-09-20T08:37:15.403Z,8.30
2018-09-20T08:39:43.514Z,7.00
2018-09-20T08:42:11.720Z,6.33
2018-09-20T08:44:39.845Z,6.37
2018-09-20T08:47:07.991Z,6.67
2018-09-20T08:49:36.212Z,6.63
2018-09-20T08:52:04.373Z,7.07
2018-09-20T08:54:32.496Z,6.43
2018-09-20T08:57:00.758Z,5.90
2018-09-20T08:59:28.845Z,5.60
2018-09-20T09:01:57.014Z,5.07
2018-09-20T09:04:25.145Z,5.87
2018-09-20T09:06:53.325Z,5.90
2018-09-20T09:09:21.500Z,5.73
2018-09-20T09:11:49.743Z,4.93
2018-09-20T09:14:17.846Z,5.33
2018-09-20T09:16:46.035Z,5.83
2018-09-20T09:19:14.206Z,5.80
2018-09-20T09:21:42.346Z,5.37
2018-09-20T09:24:10.517Z,5.17
2018-09-20T09:26:38.774Z,4.63
2018-09-20T09:29:06.901Z,4.40
2018-09-20T09:31:35.701Z,4.87
2018-09-20T09:34:03.847Z,4.30
2018-09-20T09:36:31.981Z,4.50
2018-09-20T09:39:00.102Z,4.63
2018-09-20T09:41:28.233Z,5.40
2018-09-20T09:43:56.358Z,4.87
2018-09-20T09:46:24.516Z,5.10
2018-09-20T09:48:52.642Z,4.90
2018-09-20T09:51:20.761Z,4.50
2018-09-20T09:53:48.890Z,4.87
2018-09-20T09:56:17.125Z,5.20
2018-09-20T09:58:45.257Z,4.90
2018-09-20T10:01:13.374Z,4.23
2018-09-20T10:03:43.186Z,5.20
2018-09-20T10:09:41.778Z,5.47
2018-09-20T10:12:09.946Z,5.40
2018-09-20T10:14:38.254Z,5.13
2018-09-20T10:17:06.481Z,5.33
2018-09-20T10:19:35.042Z,5.20
2018-09-20T10:22:03.228Z,5.70
2018-09-20T10:24:31.438Z,5.37
2018-09-20T10:26:59.587Z,5.20
2018-09-20T10:29:27.747Z,5.60
2018-09-20T10:31:55.908Z,4.47
2018-09-20T10:34:24.068Z,4.70
2018-09-20T10:36:52.301Z,5.43
2018-09-20T10:39:20.486Z,5.87
2018-09-20T10:41:48.625Z,4.57
2018-09-20T10:44:16.760Z,5.33
2018-09-20T10:46:44.881Z,4.60
2018-09-20T10:49:13.061Z,5.60
2018-09-20T10:51:41.206Z,5.70
2018-09-20T10:54:09.329Z,5.27
2018-09-20T10:56:37.709Z,4.70
2018-09-20T10:59:05.841Z,4.80
2018-09-20T11:01:36.741Z,5.23
2018-09-20T11:04:04.926Z,4.60
2018-09-20T11:06:33.157Z,4.97
2018-09-20T11:09:04.121Z,4.60
2018-09-20T11:11:32.318Z,4.70
2018-09-20T11:14:00.450Z,4.60
2018-09-20T11:16:28.582Z,4.63
2018-09-20T11:18:56.767Z,4.63
2018-09-20T11:21:24.957Z,5.23
2018-09-20T11:23:53.080Z,4.67
2018-09-20T11:26:21.201Z,4.60
2018-09-20T11:28:49.320Z,4.60
2018-09-20T11:31:17.451Z,3.90
2018-09-20T11:33:45.570Z,4.60
2018-09-20T11:36:13.698Z,4.47
2018-09-20T11:38:41.809Z,4.30
2018-09-20T11:41:09.929Z,5.10
2018-09-20T11:43:38.056Z,5.57
2018-09-20T11:46:06.643Z,4.00
2018-09-20T11:48:34.819Z,5.40
2018-09-20T11:51:02.949Z,4.27
2018-09-20T11:53:31.089Z,4.80
2018-09-20T11:55:59.214Z,4.40
2018-09-20T11:58:27.345Z,4.80
2018-09-20T12:00:55.469Z,4.70
2018-09-20T12:03:23.710Z,4.60
2018-09-20T12:05:51.845Z,4.40
2018-09-20T12:08:20.001Z,4.20
2018-09-20T12:10:48.158Z,4.60
2018-09-20T12:13:16.317Z,4.83
2018-09-20T12:15:44.457Z,4.63
2018-09-20T12:18:12.605Z,4.87
2018-09-20T12:20:40.761Z,5.30
2018-09-20T12:23:08.910Z,4.53
2018-09-20T12:25:37.050Z,4.90
2018-09-20T12:28:05.373Z,4.60
2018-09-20T12:30:33.533Z,4.97
2018-09-20T12:33:01.659Z,4.50
2018-09-20T12:35:29.901Z,4.43
2018-09-20T12:37:57.960Z,5.23
2018-09-20T12:40:26.085Z,5.10
2018-09-20T12:42:54.345Z,4.30
2018-09-20T12:45:22.433Z,4.93
2018-09-20T12:47:50.554Z,5.03
2018-09-20T12:50:18.673Z,5.03
2018-09-20T12:52:46.785Z,4.70
2018-09-20T12:55:14.910Z,4.90
2018-09-20T12:57:43.044Z,4.60
2018-09-20T13:00:11.207Z,4.93
2018-09-20T13:02:39.325Z,5.13
2018-09-20T13:05:07.457Z,4.10
2018-09-20T13:07:35.585Z,4.73
2018-09-20T13:10:03.732Z,5.00
2018-09-20T13:12:31.861Z,4.50
2018-09-20T13:14:59.992Z,4.47
2018-09-20T13:17:28.121Z,4.50
2018-09-20T13:19:56.257Z,4.13
2018-09-20T13:22:24.377Z,4.60
2018-09-20T13:24:52.501Z,5.40
2018-09-20T13:27:20.639Z,5.17
2018-09-20T13:29:48.763Z,5.40
2018-09-20T13:32:16.890Z,4.50
2018-09-20T13:34:45.018Z,4.43
2018-09-20T13:37:13.240Z,4.30
2018-09-20T13:39:41.433Z,4.67
2018-09-20T13:42:09.571Z,4.80
2018-09-20T13:44:37.741Z,3.97
2018-09-20T13:47:06.249Z,4.60
2018-09-20T13:49:34.384Z,4.17
2018-09-20T13:52:02.529Z,4.00
2018-09-20T13:54:30.665Z,4.70
2018-09-20T13:56:58.825Z,4.63
2018-09-20T13:59:26.970Z,5.10
2018-09-20T14:01:55.099Z,4.40
2018-09-20T14:04:23.293Z,5.20
2018-09-20T14:06:51.445Z,4.60
2018-09-20T14:09:19.590Z,5.07
2018-09-20T14:11:47.766Z,4.80
2018-09-20T14:14:15.893Z,5.50
2018-09-20T14:16:44.062Z,5.03
2018-09-20T14:19:12.210Z,4.90
2018-09-20T14:21:40.384Z,4.27
2018-09-20T14:24:08.532Z,4.73
2018-09-20T14:26:36.693Z,4.73
2018-09-20T14:29:04.848Z,4.27
2018-09-20T14:31:32.996Z,5.00
2018-09-20T14:34:01.129Z,4.80
2018-09-20T14:36:29.280Z,4.90
2018-09-20T14:38:57.448Z,4.50
2018-09-20T14:41:25.601Z,4.80
2018-09-20T14:43:53.761Z,4.87
2018-09-20T14:46:21.906Z,4.70
2018-09-20T14:48:50.040Z,4.83
2018-09-20T14:51:18.173Z,4.87
2018-09-20T14:53:46.449Z,4.87
2018-09-20T14:56:14.601Z,4.60
2018-09-20T14:58:42.741Z,3.50
2018-09-20T15:01:10.889Z,4.33
2018-09-20T15:03:39.017Z,4.60
2018-09-20T15:06:07.177Z,4.50
2018-09-20T15:08:35.313Z,4.27
2018-09-20T15:11:03.489Z,4.37
2018-09-20T15:13:31.621Z,4.23
2018-09-20T15:15:59.811Z,4.40
2018-09-20T15:18:27.976Z,3.93
2018-09-20T15:20:56.113Z,4.03
2018-09-20T15:23:24.277Z,4.50
2018-09-20T15:25:52.413Z,4.50
2018-09-20T15:28:20.544Z,4.53
2018-09-20T15:30:48.682Z,4.73
2018-09-20T15:33:16.829Z,4.30
2018-09-20T15:35:44.967Z,4.30
2018-09-20T15:38:13.177Z,4.43
2018-09-20T15:40:41.313Z,4.07
2018-09-20T15:43:09.563Z,4.73
2018-09-20T15:45:37.700Z,4.70
2018-09-20T15:48:05.875Z,4.50
2018-09-20T15:50:34.060Z,5.07
2018-09-20T15:53:02.208Z,4.83
2018-09-20T15:55:30.713Z,5.20
2018-09-20T15:57:58.874Z,4.87
2018-09-20T16:00:26.997Z,4.70
2018-09-20T16:02:55.142Z,5.23
2018-09-20T16:05:23.301Z,4.57
2018-09-20T16:07:51.457Z,4.57
2018-09-20T16:10:19.588Z,4.43
2018-09-20T16:12:47.717Z,4.60
2018-09-20T16:15:15.859Z,4.80
2018-09-20T16:17:43.997Z,4.40
2018-09-20T16:20:12.135Z,4.40
2018-09-20T16:22:40.270Z,4.50
2018-09-20T16:25:08.476Z,4.40
2018-09-20T16:27:36.930Z,4.87
2018-09-20T16:30:17.845Z,4.80
2018-09-20T16:32:56.969Z,4.90
2018-09-20T16:35:37.043Z,5.03
2018-09-20T16:38:27.503Z,4.80
2018-09-20T16:40:56.421Z,4.67
2018-09-20T16:43:24.569Z,4.30
2018-09-20T16:45:52.684Z,5.40
2018-09-20T16:48:20.808Z,4.83
2018-09-20T16:50:48.930Z,5.47
2018-09-20T16:53:17.132Z,4.73
2018-09-20T16:55:45.230Z,5.00
2018-09-20T16:58:13.396Z,4.63
2018-09-20T17:00:41.573Z,5.10
2018-09-20T17:03:09.733Z,5.30
2018-09-20T17:05:37.982Z,5.47
2018-09-20T17:08:06.122Z,5.23
2018-09-20T17:10:34.311Z,5.13
2018-09-20T17:13:02.481Z,5.00
2018-09-20T17:15:30.661Z,5.17
2018-09-20T17:17:58.986Z,5.53
2018-09-20T17:20:27.498Z,5.30
2018-09-20T17:22:55.955Z,5.00
2018-09-20T17:25:24.433Z,5.20
2018-09-20T17:27:52.865Z,5.73
2018-09-20T17:30:21.361Z,5.80
2018-09-20T17:32:49.686Z,6.57
2018-09-20T17:35:18.185Z,6.27
2018-09-20T17:37:47.264Z,7.60
2018-09-20T17:40:16.285Z,5.20
2018-09-20T17:42:46.106Z,6.33
2018-09-20T17:45:15.603Z,5.50
2018-09-20T17:47:43.685Z,6.23
2018-09-20T17:50:11.954Z,5.50
2018-09-20T17:52:40.406Z,6.33
2018-09-20T17:55:08.927Z,6.00
2018-09-20T17:57:37.484Z,6.47
2018-09-20T18:00:05.653Z,6.40
2018-09-20T18:02:33.939Z,6.60
2018-09-20T18:05:02.129Z,7.20
2018-09-20T18:07:30.279Z,6.80
2018-09-20T18:09:58.409Z,6.57
2018-09-20T18:12:26.773Z,6.63
2018-09-20T18:14:54.918Z,7.80
2018-09-20T18:17:23.037Z,6.80
2018-09-20T18:19:51.163Z,6.90
2018-09-20T18:22:19.306Z,7.10
2018-09-20T18:24:47.446Z,6.67
2018-09-20T18:27:15.577Z,7.30
2018-09-20T18:29:43.700Z,6.53
2018-09-20T18:32:11.824Z,6.53
2018-09-20T18:34:39.961Z,6.80
2018-09-20T18:37:08.123Z,7.40
2018-09-20T18:39:36.273Z,6.30
2018-09-20T18:42:04.402Z,6.23
2018-09-20T18:44:32.538Z,6.93
2018-09-20T18:47:00.669Z,6.60
2018-09-20T18:49:28.781Z,6.30
2018-09-20T18:51:56.897Z,5.87
2018-09-20T18:54:25.026Z,6.00
2018-09-20T18:56:53.156Z,6.53
2018-09-20T18:59:21.291Z,6.53
2018-09-20T19:01:49.434Z,7.13
2018-09-20T19:04:17.566Z,6.07
2018-09-20T19:06:45.708Z,5.83
2018-09-20T19:09:13.860Z,6.20
2018-09-20T19:11:41.983Z,6.20
2018-09-20T19:14:10.119Z,6.30
2018-09-20T19:16:38.258Z,5.60
2018-09-20T19:19:06.436Z,6.27
2018-09-20T19:21:34.573Z,6.13
2018-09-20T19:24:02.721Z,6.53
2018-09-20T19:26:30.852Z,5.93
2018-09-20T19:28:58.981Z,6.80
2018-09-20T19:31:27.127Z,6.27
2018-09-20T19:33:55.264Z,7.20
2018-09-20T19:36:23.397Z,6.37
2018-09-20T19:38:51.540Z,6.73
2018-09-20T19:41:19.785Z,6.20
2018-09-20T19:43:47.964Z,7.30
2018-09-20T19:46:16.089Z,6.00
2018-09-20T19:48:44.225Z,6.07
2018-09-20T19:51:12.357Z,6.33
2018-09-20T19:53:40.488Z,6.83
2018-09-20T19:56:08.617Z,7.03
2018-09-20T19:58:36.778Z,6.40
2018-09-20T20:01:04.909Z,5.80
2018-09-20T20:03:33.048Z,5.77
2018-09-20T20:06:01.169Z,6.70
2018-09-20T20:08:29.317Z,6.20
2018-09-20T20:10:57.418Z,6.17
2018-09-20T20:13:25.555Z,6.17
2018-09-20T20:15:53.714Z,5.87
2018-09-20T20:18:21.840Z,6.17
2018-09-20T20:20:49.983Z,5.80
2018-09-20T20:23:18.139Z,6.03
2018-09-20T20:25:46.301Z,6.03
2018-09-20T20:28:14.426Z,5.87
2018-09-20T20:30:42.566Z,6.00
2018-09-20T20:33:10.755Z,6.70
2018-09-20T20:35:38.889Z,5.70
2018-09-20T20:38:07.095Z,6.23
2018-09-20T20:40:34.965Z,5.90
2018-09-20T20:43:03.123Z,6.23
2018-09-20T20:45:31.261Z,6.23
2018-09-20T20:47:59.391Z,6.33
2018-09-20T20:50:27.522Z,6.13
2018-09-20T20:52:55.761Z,6.03
2018-09-20T20:55:23.873Z,6.10
2018-09-20T20:57:52.036Z,5.97
2018-09-20T21:00:20.170Z,6.93
2018-09-20T21:02:48.296Z,6.90
2018-09-20T21:05:16.573Z,6.20
2018-09-20T21:07:44.676Z,6.17
2018-09-20T21:10:12.813Z,6.67
2018-09-20T21:12:40.933Z,6.43
2018-09-20T21:15:09.058Z,6.53
2018-09-20T21:17:37.269Z,6.47
2018-09-20T21:20:05.439Z,6.07
2018-09-20T21:22:33.579Z,6.50
2018-09-20T21:25:01.725Z,5.80
2018-09-20T21:27:29.897Z,5.90
2018-09-20T21:29:58.121Z,6.57
2018-09-20T21:32:26.259Z,6.93
2018-09-20T21:34:54.406Z,6.60
2018-09-20T21:37:22.606Z,6.13
2018-09-20T21:39:50.785Z,6.10
2018-09-20T21:42:18.961Z,6.27
2018-09-20T21:44:47.085Z,5.90
2018-09-20T21:47:15.660Z,7.53
2018-09-20T21:49:43.782Z,6.50
2018-09-20T21:52:11.940Z,6.43
2018-09-20T21:54:40.109Z,6.43
2018-09-20T21:57:08.317Z,6.10
2018-09-20T21:59:36.456Z,7.10
2018-09-20T22:02:04.659Z,6.80
2018-09-20T22:04:33.687Z,6.33
2018-09-20T22:07:01.818Z,6.07
2018-09-20T22:09:30.545Z,5.93
2018-09-20T22:11:58.683Z,6.10
2018-09-20T22:14:26.808Z,7.20
2018-09-20T22:16:54.934Z,6.40
2018-09-20T22:19:23.069Z,6.60
2018-09-20T22:21:51.254Z,6.37
2018-09-20T22:24:19.370Z,6.67
2018-09-20T22:26:47.497Z,7.27
2018-09-20T22:29:15.621Z,6.60
2018-09-20T22:31:43.759Z,6.90
2018-09-20T22:34:11.893Z,6.80
2018-09-20T22:36:40.034Z,6.03
2018-09-20T22:39:09.532Z,6.40
2018-09-20T22:41:37.662Z,6.57
2018-09-20T22:44:05.802Z,7.30
2018-09-20T22:46:33.943Z,7.60
2018-09-20T22:49:02.098Z,8.33
2018-09-20T22:51:30.234Z,7.37
2018-09-20T22:53:58.357Z,7.50
2018-09-20T22:56:26.493Z,8.17
2018-09-20T22:58:54.617Z,7.97
2018-09-20T23:01:22.772Z,7.80
2018-09-20T23:03:50.918Z,7.70
2018-09-20T23:06:19.080Z,7.50
2018-09-20T23:08:47.206Z,8.50
2018-09-20T23:11:15.353Z,8.30
2018-09-20T23:13:43.485Z,9.80
2018-09-20T23:16:11.636Z,9.07
2018-09-20T23:18:42.697Z,8.90
2018-09-20T23:21:10.888Z,7.83
2018-09-20T23:23:39.038Z,9.07
2018-09-20T23:26:07.194Z,8.83
2018-09-20T23:28:35.331Z,8.40
2018-09-20T23:31:03.481Z,9.07
2018-09-20T23:33:31.609Z,8.53
2018-09-20T23:35:59.757Z,8.60
2018-09-20T23:38:27.904Z,8.57
2018-09-20T23:40:56.069Z,8.10
2018-09-20T23:43:24.293Z,8.67
2018-09-20T23:45:52.438Z,8.03
2018-09-20T23:48:20.587Z,8.93
2018-09-20T23:50:48.729Z,8.43
2018-09-20T23:53:16.876Z,8.50
2018-09-20T23:55:45.018Z,9.10
2018-09-20T23:58:13.176Z,8.87
